Armstrong, Florida
Current Conditions -  °F | °C
As of 10:58 AM on Tuesday 21 Oct 2014 (Local Time) from KSGJ Reporting Station
Few Clouds Few Clouds  
Wind Chill: 78°   Ceiling: Unl
Heat Index: 80°   Visibility: 10mi
Dew Point: 67°   Wind: 7mph
Humidity: 68%   Direction: 310°NW
Pressure: 29.99"   Gusts: NA
Location:  29.7919°N, 81.4499°W
Report Text: KSGJ 211458Z 31006KT 10SM FEW050 26/19 A2999 RMK AO2 SLP155 T02560194 50008
Loading
Personal Weather Stations






























Interactive Weather Map
Tropical Storm Tracking
New forecast layout! Learn more

10-Day Weather Forecast

Advertisements
Track Severe Weather on mobile